createdAt,value
2017-04-19T00:00:49.550Z,2.80
2017-04-19T00:01:49.036Z,2.80
2017-04-19T00:02:48.469Z,2.80
2017-04-19T00:03:47.887Z,2.80
2017-04-19T00:04:47.296Z,2.80
2017-04-19T00:05:47.307Z,2.80
2017-04-19T00:06:46.713Z,2.80
2017-04-19T00:07:46.147Z,2.80
2017-04-19T00:08:45.587Z,2.70
2017-04-19T00:09:44.987Z,2.80
2017-04-19T00:10:44.383Z,2.80
2017-04-19T00:11:43.111Z,2.80
2017-04-19T00:12:41.802Z,2.80
2017-04-19T00:13:41.214Z,2.80
2017-04-19T00:14:40.653Z,2.70
2017-04-19T00:15:40.125Z,2.70
2017-04-19T00:16:40.010Z,2.70
2017-04-19T00:17:39.745Z,2.70
2017-04-19T00:18:39.130Z,2.70
2017-04-19T00:19:38.550Z,2.70
2017-04-19T00:20:37.946Z,2.70
2017-04-19T00:21:37.407Z,2.60
2017-04-19T00:22:36.857Z,2.60
2017-04-19T00:23:36.263Z,2.60
2017-04-19T00:24:35.697Z,2.60
2017-04-19T00:25:35.110Z,2.60
2017-04-19T00:26:34.578Z,2.60
2017-04-19T00:27:34.714Z,2.60
2017-04-19T00:28:34.163Z,2.60
2017-04-19T00:29:33.602Z,2.60
2017-04-19T00:30:33.005Z,2.60
2017-04-19T00:31:32.389Z,2.60
2017-04-19T00:32:31.781Z,2.60
2017-04-19T00:33:30.945Z,2.60
2017-04-19T00:34:30.354Z,2.60
2017-04-19T00:35:29.769Z,2.70
2017-04-19T00:36:29.178Z,2.70
2017-04-19T00:37:28.578Z,2.70
2017-04-19T00:38:27.997Z,2.60
2017-04-19T00:39:27.414Z,2.70
2017-04-19T00:40:26.843Z,2.60
2017-04-19T00:41:26.238Z,2.60
2017-04-19T00:42:25.009Z,2.50
2017-04-19T00:43:24.401Z,2.60
2017-04-19T00:44:23.814Z,2.60
2017-04-19T00:45:23.201Z,2.60
2017-04-19T00:46:22.578Z,2.60
2017-04-19T00:47:21.965Z,2.60
2017-04-19T00:48:21.357Z,2.60
2017-04-19T00:49:20.810Z,2.60
2017-04-19T00:50:20.250Z,2.60
2017-04-19T00:51:19.643Z,2.60
2017-04-19T00:52:19.082Z,2.50
2017-04-19T00:53:18.469Z,2.50
2017-04-19T00:54:17.161Z,2.40
2017-04-19T00:55:16.396Z,2.40
2017-04-19T00:56:15.608Z,2.40
2017-04-19T00:57:14.845Z,2.30
2017-04-19T00:58:14.420Z,2.30
2017-04-19T00:59:13.660Z,2.30
2017-04-19T01:00:12.907Z,2.30
2017-04-19T01:01:12.149Z,2.30
2017-04-19T01:02:11.381Z,2.30
2017-04-19T01:03:10.613Z,2.30
2017-04-19T01:04:09.894Z,2.30
2017-04-19T01:05:09.164Z,2.20
2017-04-19T01:06:08.391Z,2.20
2017-04-19T01:07:07.612Z,2.20
2017-04-19T01:08:06.854Z,2.10
2017-04-19T01:09:06.719Z,2.10
2017-04-19T01:10:05.979Z,2.10
2017-04-19T01:11:05.274Z,2.00
2017-04-19T01:12:04.496Z,2.00
2017-04-19T01:13:03.717Z,2.00
2017-04-19T01:14:02.943Z,1.90
2017-04-19T01:15:01.412Z,1.90
2017-04-19T01:16:00.680Z,1.90
2017-04-19T01:16:59.900Z,1.80
2017-04-19T01:17:59.170Z,1.80
2017-04-19T01:18:58.389Z,1.80
2017-04-19T01:19:57.713Z,1.70
2017-04-19T01:20:56.952Z,1.70
2017-04-19T01:21:56.171Z,1.60
2017-04-19T01:22:55.392Z,1.60
2017-04-19T01:23:54.632Z,1.60
2017-04-19T01:24:53.892Z,1.60
2017-04-19T01:25:53.109Z,1.50
2017-04-19T01:26:52.348Z,1.60
2017-04-19T01:27:51.564Z,1.50
2017-04-19T01:28:50.771Z,1.50
2017-04-19T01:29:49.271Z,1.40
2017-04-19T01:30:48.507Z,1.40
2017-04-19T01:31:47.764Z,1.40
2017-04-19T01:32:47.018Z,1.40
2017-04-19T01:33:46.249Z,1.30
2017-04-19T01:34:45.501Z,1.30
2017-04-19T01:35:45.004Z,1.30
2017-04-19T01:36:44.250Z,1.30
2017-04-19T01:37:43.468Z,1.30
2017-04-19T01:38:42.700Z,1.30
2017-04-19T01:39:42.236Z,1.30
2017-04-19T01:40:41.499Z,1.20
2017-04-19T01:41:41.484Z,1.10
2017-04-19T01:42:40.730Z,1.20
2017-04-19T01:43:40.720Z,1.20
2017-04-19T01:44:39.959Z,1.20
2017-04-19T01:45:39.196Z,1.20
2017-04-19T01:46:38.416Z,1.20
2017-04-19T01:47:36.873Z,1.10
2017-04-19T01:48:36.083Z,1.20
2017-04-19T01:49:35.336Z,1.10
2017-04-19T01:50:34.697Z,1.10
2017-04-19T01:51:33.925Z,1.10
2017-04-19T01:52:33.159Z,1.10
2017-04-19T01:53:32.380Z,1.10
2017-04-19T01:54:31.620Z,1.10
2017-04-19T01:55:30.862Z,1.10
2017-04-19T01:56:30.142Z,1.10
2017-04-19T01:57:28.601Z,1.00
2017-04-19T01:58:27.832Z,1.00
2017-04-19T01:59:27.084Z,1.10
2017-04-19T02:00:26.628Z,1.00
2017-04-19T02:01:25.856Z,1.00
2017-04-19T02:02:25.082Z,1.00
2017-04-19T02:03:24.376Z,1.00
2017-04-19T02:04:23.603Z,1.00
2017-04-19T02:05:23.240Z,1.00
2017-04-19T02:06:27.913Z,1.00
2017-04-19T02:07:32.412Z,0.90
2017-04-19T02:08:31.728Z,0.90
2017-04-19T02:09:30.961Z,0.90
2017-04-19T02:10:30.312Z,0.90
2017-04-19T02:11:29.532Z,0.80
2017-04-19T02:12:28.761Z,0.90
2017-04-19T02:13:28.074Z,0.80
2017-04-19T02:14:27.291Z,0.80
2017-04-19T02:15:26.936Z,0.80
2017-04-19T02:16:26.170Z,0.90
2017-04-19T02:17:26.815Z,0.80
2017-04-19T02:18:26.344Z,0.80
2017-04-19T02:19:25.571Z,0.80
2017-04-19T02:20:25.037Z,0.70
2017-04-19T02:21:24.004Z,0.70
2017-04-19T02:22:24.012Z,0.80
2017-04-19T02:23:22.447Z,0.80
2017-04-19T02:24:23.003Z,0.80
2017-04-19T02:25:23.386Z,0.80
2017-04-19T02:26:22.637Z,0.80
2017-04-19T02:27:21.869Z,0.80
2017-04-19T02:28:21.088Z,0.70
2017-04-19T02:29:20.316Z,0.80
2017-04-19T02:30:19.613Z,0.70
2017-04-19T02:31:18.865Z,0.70
2017-04-19T02:32:18.088Z,0.80
2017-04-19T02:33:17.325Z,0.70
2017-04-19T02:34:16.557Z,0.70
2017-04-19T02:35:15.789Z,0.70
2017-04-19T02:36:15.795Z,0.70
2017-04-19T02:37:16.488Z,0.70
2017-04-19T02:38:15.701Z,0.70
2017-04-19T02:39:14.912Z,0.70
2017-04-19T02:40:15.422Z,0.70
2017-04-19T02:41:14.821Z,0.70
2017-04-19T02:42:14.093Z,0.70
2017-04-19T02:43:13.557Z,0.80
2017-04-19T02:44:12.775Z,0.70
2017-04-19T02:45:11.992Z,0.70
2017-04-19T02:46:11.443Z,0.70
2017-04-19T02:47:10.656Z,0.70
2017-04-19T02:48:09.880Z,0.70
2017-04-19T02:49:09.113Z,0.60
2017-04-19T02:50:08.348Z,0.60
2017-04-19T02:51:08.624Z,0.60
2017-04-19T02:52:07.829Z,0.60
2017-04-19T02:53:07.112Z,0.60
2017-04-19T02:54:06.359Z,0.70
2017-04-19T02:55:05.612Z,0.60
2017-04-19T02:56:04.836Z,0.60
2017-04-19T02:57:04.083Z,0.60
2017-04-19T02:58:03.293Z,0.60
2017-04-19T02:59:02.519Z,0.50
2017-04-19T03:00:01.734Z,0.60
2017-04-19T03:01:00.300Z,0.50
2017-04-19T03:01:59.614Z,0.60
2017-04-19T03:02:59.684Z,0.50
2017-04-19T03:03:59.051Z,0.50
2017-04-19T03:04:58.474Z,0.60
2017-04-19T03:05:56.956Z,0.50
2017-04-19T03:06:56.441Z,0.50
2017-04-19T03:07:55.664Z,0.50
2017-04-19T03:08:54.872Z,0.50
2017-04-19T03:09:54.217Z,0.50
2017-04-19T03:10:52.668Z,0.40
2017-04-19T03:11:51.905Z,0.50
2017-04-19T03:12:51.116Z,0.50
2017-04-19T03:13:51.085Z,0.40
2017-04-19T03:14:50.308Z,0.40
2017-04-19T03:15:49.512Z,0.40
2017-04-19T03:16:48.748Z,0.40
2017-04-19T03:17:48.097Z,0.40
2017-04-19T03:18:47.317Z,0.30
2017-04-19T03:19:46.540Z,0.20
2017-04-19T03:20:45.764Z,0.20
2017-04-19T03:21:45.055Z,0.30
2017-04-19T03:22:44.281Z,0.30
2017-04-19T03:23:43.503Z,0.30
2017-04-19T03:24:42.737Z,0.30
2017-04-19T03:25:41.213Z,0.30
2017-04-19T03:26:40.796Z,0.20
2017-04-19T03:27:40.019Z,0.20
2017-04-19T03:28:38.473Z,0.20
2017-04-19T03:29:37.698Z,0.20
2017-04-19T03:30:36.895Z,0.20
2017-04-19T03:31:36.164Z,0.20
2017-04-19T03:32:35.403Z,0.10
2017-04-19T03:33:34.045Z,0.10
2017-04-19T03:34:33.341Z,0.20
2017-04-19T03:35:32.555Z,0.10
2017-04-19T03:36:31.797Z,0.10
2017-04-19T03:37:30.340Z,0.10
2017-04-19T03:38:29.567Z,0.20
2017-04-19T03:39:29.124Z,0.10
2017-04-19T03:40:28.332Z,0.10
2017-04-19T03:41:27.561Z,0.00
2017-04-19T03:42:26.852Z,0.10
2017-04-19T03:43:26.068Z,0.10
2017-04-19T03:44:25.274Z,0.10
2017-04-19T03:45:24.495Z,0.10
2017-04-19T03:46:23.692Z,0.00
2017-04-19T03:47:22.939Z,0.10
2017-04-19T03:48:22.181Z,0.10
2017-04-19T03:49:21.387Z,0.10
2017-04-19T03:50:20.592Z,0.00
2017-04-19T03:51:19.804Z,0.10
2017-04-19T03:52:19.053Z,0.10
2017-04-19T03:53:18.270Z,0.10
2017-04-19T03:54:17.508Z,0.10
2017-04-19T03:55:16.725Z,0.10
2017-04-19T03:56:16.005Z,0.00
2017-04-19T03:57:15.237Z,0.00
2017-04-19T03:58:14.455Z,0.00
2017-04-19T03:59:13.693Z,0.00
2017-04-19T04:00:12.922Z,-0.10
2017-04-19T04:01:12.136Z,0.00
2017-04-19T04:02:11.632Z,-0.10
2017-04-19T04:03:10.848Z,-0.10
2017-04-19T04:04:10.139Z,0.00
2017-04-19T04:05:08.585Z,-0.10
2017-04-19T04:06:07.819Z,-0.10
2017-04-19T04:07:06.381Z,-0.10
2017-04-19T04:08:05.621Z,-0.10
2017-04-19T04:09:05.693Z,0.00
2017-04-19T04:10:04.933Z,0.00
2017-04-19T04:11:04.194Z,0.00
2017-04-19T04:12:03.409Z,0.00
2017-04-19T04:13:02.668Z,-0.10
2017-04-19T04:14:01.913Z,0.00
2017-04-19T04:15:00.439Z,-0.10
2017-04-19T04:15:59.674Z,-0.10
2017-04-19T04:16:58.140Z,-0.10
2017-04-19T04:17:57.401Z,-0.10
2017-04-19T04:18:56.621Z,-0.10
2017-04-19T04:19:55.848Z,-0.10
2017-04-19T04:20:55.060Z,-0.20
2017-04-19T04:21:54.279Z,-0.20
2017-04-19T04:22:53.520Z,-0.20
2017-04-19T04:23:52.732Z,-0.20
2017-04-19T04:24:51.958Z,-0.20
2017-04-19T04:25:51.170Z,-0.20
2017-04-19T04:26:51.128Z,-0.20
2017-04-19T04:27:50.431Z,-0.10
2017-04-19T04:28:49.694Z,-0.10
2017-04-19T04:29:48.933Z,-0.10
2017-04-19T04:30:48.161Z,-0.10
2017-04-19T04:31:47.719Z,0.00
2017-04-19T04:32:46.963Z,0.00
2017-04-19T04:33:46.184Z,0.00
2017-04-19T04:34:45.408Z,0.00
2017-04-19T04:35:44.616Z,0.00
2017-04-19T04:36:43.849Z,0.00
2017-04-19T04:37:43.136Z,0.10
2017-04-19T04:38:42.372Z,0.10
2017-04-19T04:39:41.604Z,0.10
2017-04-19T04:40:40.837Z,0.10
2017-04-19T04:41:40.053Z,0.20
2017-04-19T04:42:39.293Z,0.20
2017-04-19T04:43:38.760Z,0.20
2017-04-19T04:44:38.241Z,0.20
2017-04-19T04:45:37.491Z,0.20
2017-04-19T04:46:36.711Z,0.30
2017-04-19T04:47:35.937Z,0.30
2017-04-19T04:48:35.257Z,0.30
2017-04-19T04:49:34.500Z,0.30
2017-04-19T04:50:33.793Z,0.30
2017-04-19T04:51:33.018Z,0.30
2017-04-19T04:52:32.273Z,0.40
2017-04-19T04:53:31.516Z,0.30
2017-04-19T04:54:30.760Z,0.30
2017-04-19T04:55:29.989Z,0.40
2017-04-19T04:56:29.207Z,0.40
2017-04-19T04:57:28.416Z,0.40
2017-04-19T04:58:27.668Z,0.40
2017-04-19T04:59:26.915Z,0.40
2017-04-19T05:00:26.129Z,0.50
2017-04-19T05:01:25.437Z,0.60
2017-04-19T05:02:24.682Z,0.60
2017-04-19T05:03:23.932Z,0.60
2017-04-19T05:04:23.246Z,0.60
2017-04-19T05:05:22.503Z,0.70
2017-04-19T05:06:21.726Z,0.70
2017-04-19T05:07:20.944Z,0.70
2017-04-19T05:08:20.219Z,0.80
2017-04-19T05:09:19.465Z,0.80
2017-04-19T05:10:18.683Z,0.80
2017-04-19T05:11:17.137Z,0.70
2017-04-19T05:12:17.096Z,0.70
2017-04-19T05:13:17.057Z,0.80
2017-04-19T05:14:16.300Z,0.90
2017-04-19T05:15:15.509Z,0.90
2017-04-19T05:16:15.750Z,0.90
2017-04-19T05:17:14.968Z,1.00
2017-04-19T05:18:14.328Z,1.10
2017-04-19T05:19:13.579Z,1.10
2017-04-19T05:20:12.802Z,1.10
2017-04-19T05:21:12.029Z,1.20
2017-04-19T05:22:11.279Z,1.20
2017-04-19T05:23:09.788Z,1.10
2017-04-19T05:24:09.033Z,1.30
2017-04-19T05:25:08.336Z,1.30
2017-04-19T05:26:07.734Z,1.30
2017-04-19T05:27:06.968Z,1.20
2017-04-19T05:28:05.473Z,1.20
2017-04-19T05:29:04.744Z,1.30
2017-04-19T05:30:04.028Z,1.40
2017-04-19T05:31:03.241Z,1.40
2017-04-19T05:32:02.480Z,1.50
2017-04-19T05:33:01.707Z,1.60
2017-04-19T05:34:00.965Z,1.50
2017-04-19T05:35:00.181Z,1.60
2017-04-19T05:35:59.396Z,1.60
2017-04-19T05:36:58.616Z,1.60
2017-04-19T05:37:57.848Z,1.60
2017-04-19T05:38:57.086Z,1.70
2017-04-19T05:39:56.312Z,1.70
2017-04-19T05:40:55.541Z,1.80
2017-04-19T05:41:54.833Z,1.90
2017-04-19T05:42:54.129Z,1.90
2017-04-19T05:43:53.409Z,2.00
2017-04-19T05:44:52.668Z,2.00
2017-04-19T05:45:51.922Z,2.10
2017-04-19T05:46:51.155Z,2.20
2017-04-19T05:47:50.377Z,2.20
2017-04-19T05:48:49.612Z,2.20
2017-04-19T05:49:48.948Z,2.20
2017-04-19T05:50:48.187Z,2.30
2017-04-19T05:51:47.453Z,2.30
2017-04-19T05:52:46.684Z,2.40
2017-04-19T05:53:45.895Z,2.50
2017-04-19T05:54:44.385Z,2.40
2017-04-19T05:55:43.604Z,2.60
2017-04-19T05:56:42.820Z,2.70
2017-04-19T05:57:42.060Z,2.80
2017-04-19T05:58:42.035Z,2.90
2017-04-19T05:59:41.314Z,3.00
2017-04-19T06:00:40.534Z,3.20
2017-04-19T06:01:39.756Z,3.20
2017-04-19T06:02:38.980Z,3.30
2017-04-19T06:03:38.220Z,3.30
2017-04-19T06:04:37.464Z,3.20
2017-04-19T06:05:36.696Z,3.30
2017-04-19T06:06:35.965Z,3.30
2017-04-19T06:07:35.192Z,3.30
2017-04-19T06:08:35.156Z,3.40
2017-04-19T06:09:34.393Z,3.40
2017-04-19T06:10:33.608Z,3.40
2017-04-19T06:11:32.820Z,3.50
2017-04-19T06:12:32.056Z,3.70
2017-04-19T06:13:30.524Z,3.60
2017-04-19T06:14:30.117Z,4.10
2017-04-19T06:15:29.335Z,4.20
2017-04-19T06:16:28.532Z,4.30
2017-04-19T06:17:27.761Z,4.60
2017-04-19T06:18:26.988Z,4.70
2017-04-19T06:19:26.292Z,5.00
2017-04-19T06:20:25.595Z,5.30
2017-04-19T06:21:24.811Z,5.60
2017-04-19T06:22:24.041Z,6.00
2017-04-19T06:23:24.388Z,6.00
2017-04-19T06:24:23.820Z,6.00
2017-04-19T06:25:23.433Z,6.10
2017-04-19T06:26:22.664Z,5.90
2017-04-19T06:27:22.391Z,6.10
2017-04-19T06:28:21.872Z,6.40
2017-04-19T06:29:21.705Z,6.50
2017-04-19T06:30:21.112Z,6.50
2017-04-19T06:31:20.348Z,6.40
2017-04-19T06:32:19.910Z,6.30
2017-04-19T06:33:19.455Z,6.80
2017-04-19T06:34:18.841Z,7.10
2017-04-19T06:35:18.237Z,7.50
2017-04-19T06:36:17.637Z,7.70
2017-04-19T06:37:17.332Z,7.90
2017-04-19T06:38:16.587Z,8.10
2017-04-19T06:39:16.200Z,8.60
2017-04-19T06:40:15.842Z,8.70
2017-04-19T06:41:15.177Z,8.70
2017-04-19T06:42:14.908Z,8.70
2017-04-19T06:43:14.444Z,9.10
2017-04-19T06:44:13.890Z,9.30
2017-04-19T06:45:13.429Z,9.10
2017-04-19T06:46:12.651Z,9.00
2017-04-19T06:47:12.145Z,8.90
2017-04-19T06:48:11.983Z,8.90
2017-04-19T06:49:12.021Z,9.00
2017-04-19T06:50:12.113Z,9.30
2017-04-19T06:51:11.625Z,9.70
2017-04-19T06:52:11.424Z,10.10
2017-04-19T06:53:11.084Z,10.10
2017-04-19T06:54:10.794Z,8.80
2017-04-19T06:55:10.218Z,8.90
2017-04-19T06:56:09.623Z,9.10
2017-04-19T06:57:09.174Z,9.30
2017-04-19T06:58:08.841Z,9.70
2017-04-19T06:59:08.227Z,9.50
2017-04-19T07:00:07.807Z,9.20
2017-04-19T07:01:07.432Z,9.10
2017-04-19T07:02:06.820Z,9.00
2017-04-19T07:03:08.016Z,9.20
2017-04-19T07:04:08.100Z,9.60
2017-04-19T07:05:07.185Z,9.50
2017-04-19T07:06:07.181Z,9.60
2017-04-19T07:07:06.701Z,9.90
2017-04-19T07:08:06.290Z,10.20
2017-04-19T07:09:06.088Z,10.80
2017-04-19T07:10:05.779Z,11.10
2017-04-19T07:11:05.156Z,11.20
2017-04-19T07:12:04.836Z,11.10
2017-04-19T07:13:04.529Z,10.90
2017-04-19T07:14:03.828Z,10.70
2017-04-19T07:15:03.295Z,10.40
2017-04-19T07:16:03.071Z,10.30
2017-04-19T07:17:02.584Z,10.40
2017-04-19T07:18:01.611Z,10.30
2017-04-19T07:19:01.113Z,9.80
2017-04-19T07:20:00.740Z,9.90
2017-04-19T07:20:59.988Z,9.60
2017-04-19T07:21:59.596Z,9.80
2017-04-19T07:22:59.128Z,9.80
2017-04-19T07:23:58.681Z,10.00
2017-04-19T07:24:58.062Z,10.00
2017-04-19T07:25:57.466Z,9.80
2017-04-19T07:26:57.206Z,9.80
2017-04-19T07:27:56.441Z,9.90
2017-04-19T07:28:56.041Z,9.90
2017-04-19T07:29:55.672Z,9.80
2017-04-19T07:30:55.117Z,9.60
2017-04-19T07:31:54.635Z,9.40
2017-04-19T07:32:54.327Z,9.60
2017-04-19T07:33:53.990Z,9.70
2017-04-19T07:34:53.657Z,9.50
2017-04-19T07:35:52.725Z,9.50
2017-04-19T07:36:52.400Z,9.40
2017-04-19T07:37:52.194Z,9.20
2017-04-19T07:38:52.087Z,9.00
2017-04-19T07:39:51.581Z,8.40
2017-04-19T07:40:50.411Z,8.30
2017-04-19T07:41:50.199Z,7.60
2017-04-19T07:42:49.481Z,7.40
2017-04-19T07:43:49.104Z,7.00
2017-04-19T07:44:49.009Z,6.60
2017-04-19T07:45:48.701Z,6.80
2017-04-19T07:46:48.406Z,7.00
2017-04-19T07:47:47.872Z,6.80
2017-04-19T07:48:48.234Z,6.60
2017-04-19T07:49:47.669Z,6.50
2017-04-19T07:50:47.269Z,6.50
2017-04-19T07:51:46.109Z,6.50
2017-04-19T07:52:45.644Z,6.50
2017-04-19T07:53:44.880Z,6.60
2017-04-19T07:54:44.480Z,6.80
2017-04-19T07:55:44.410Z,6.70
2017-04-19T07:56:43.369Z,6.70
2017-04-19T07:57:42.641Z,6.80
2017-04-19T07:58:42.073Z,6.90
2017-04-19T07:59:41.584Z,6.80
2017-04-19T08:00:40.848Z,6.60
2017-04-19T08:01:40.124Z,6.70
2017-04-19T08:02:39.352Z,6.90
2017-04-19T08:03:38.583Z,7.10
2017-04-19T08:04:38.249Z,7.20
2017-04-19T08:05:37.472Z,6.90
2017-04-19T08:06:36.716Z,6.70
2017-04-19T08:07:36.039Z,6.70
2017-04-19T08:08:35.695Z,6.60
2017-04-19T08:09:34.912Z,6.60
2017-04-19T08:10:34.232Z,6.60
2017-04-19T08:11:33.478Z,6.50
2017-04-19T08:12:33.463Z,6.20
2017-04-19T08:13:32.715Z,6.20
2017-04-19T08:14:32.048Z,6.40
2017-04-19T08:15:30.512Z,6.40
2017-04-19T08:16:30.020Z,7.40
2017-04-19T08:17:29.244Z,7.60
2017-04-19T08:18:28.742Z,8.00
2017-04-19T08:19:28.540Z,8.00
2017-04-19T08:20:29.525Z,8.10
2017-04-19T08:21:28.905Z,7.90
2017-04-19T08:22:28.175Z,8.00
2017-04-19T08:23:27.380Z,7.90
2017-04-19T08:24:26.603Z,7.80
2017-04-19T08:25:25.893Z,8.20
2017-04-19T08:26:25.240Z,8.30
2017-04-19T08:27:24.483Z,8.60
2017-04-19T08:28:23.705Z,8.70
2017-04-19T08:29:22.925Z,8.80
2017-04-19T08:30:22.149Z,8.80
2017-04-19T08:31:21.375Z,8.70
2017-04-19T08:32:20.701Z,8.40
2017-04-19T08:33:19.912Z,8.50
2017-04-19T08:34:19.186Z,8.60
2017-04-19T08:35:18.405Z,8.60
2017-04-19T08:36:17.670Z,8.80
2017-04-19T08:37:16.920Z,9.00
2017-04-19T08:38:16.144Z,8.90
2017-04-19T08:39:15.364Z,8.90
2017-04-19T08:40:14.575Z,8.70
2017-04-19T08:41:13.784Z,8.40
2017-04-19T08:42:13.020Z,7.90
2017-04-19T08:43:12.344Z,7.50
2017-04-19T08:44:11.564Z,7.20
2017-04-19T08:45:10.796Z,6.80
2017-04-19T08:46:10.019Z,6.60
2017-04-19T08:47:09.283Z,6.50
2017-04-19T08:48:08.504Z,6.60
2017-04-19T08:49:07.752Z,6.80
2017-04-19T08:50:06.989Z,7.30
2017-04-19T08:51:06.233Z,7.70
2017-04-19T08:52:05.766Z,8.10
2017-04-19T08:53:05.025Z,8.50
2017-04-19T08:54:04.301Z,9.00
2017-04-19T08:55:03.544Z,9.20
2017-04-19T08:56:02.765Z,9.50
2017-04-19T08:57:02.040Z,10.00
2017-04-19T08:58:00.536Z,9.90
2017-04-19T08:58:59.790Z,10.30
2017-04-19T08:59:59.017Z,10.20
2017-04-19T09:00:58.244Z,10.00
2017-04-19T09:01:57.546Z,9.70
2017-04-19T09:02:56.780Z,9.00
2017-04-19T09:03:55.996Z,8.60
2017-04-19T09:04:55.216Z,8.20
2017-04-19T09:05:54.444Z,7.90
2017-04-19T09:06:53.672Z,7.60
2017-04-19T09:07:52.914Z,7.40
2017-04-19T09:08:52.129Z,6.90
2017-04-19T09:09:51.346Z,6.80
2017-04-19T09:10:50.572Z,6.60
2017-04-19T09:11:49.816Z,6.40
2017-04-19T09:12:49.072Z,6.10
2017-04-19T09:13:48.284Z,6.20
2017-04-19T09:14:47.504Z,6.40
2017-04-19T09:15:46.740Z,6.30
2017-04-19T09:16:45.992Z,6.50
2017-04-19T09:17:45.234Z,6.50
2017-04-19T09:18:44.459Z,6.70
2017-04-19T09:19:43.698Z,6.80
2017-04-19T09:20:42.917Z,6.70
2017-04-19T09:21:42.160Z,6.90
2017-04-19T09:22:41.408Z,6.90
2017-04-19T09:23:40.728Z,6.90
2017-04-19T09:24:39.948Z,7.00
2017-04-19T09:25:39.169Z,6.90
2017-04-19T09:26:38.376Z,6.70
2017-04-19T09:27:37.636Z,6.60
2017-04-19T09:28:36.867Z,6.40
2017-04-19T09:29:36.084Z,6.50
2017-04-19T09:30:35.303Z,6.40
2017-04-19T09:31:34.512Z,6.40
2017-04-19T09:32:33.732Z,6.40
2017-04-19T09:33:32.979Z,6.40
2017-04-19T09:34:32.188Z,6.50
2017-04-19T09:35:31.410Z,6.60
2017-04-19T09:36:30.624Z,6.60
2017-04-19T09:37:29.845Z,6.60
2017-04-19T09:38:29.113Z,6.50
2017-04-19T09:39:28.342Z,6.50
2017-04-19T09:40:27.552Z,6.50
2017-04-19T09:41:26.796Z,6.40
2017-04-19T09:42:26.025Z,6.40
2017-04-19T09:43:25.320Z,6.20
2017-04-19T09:44:24.532Z,6.20
2017-04-19T09:45:23.754Z,6.10
2017-04-19T09:46:22.968Z,6.00
2017-04-19T09:47:22.228Z,5.90
2017-04-19T09:48:21.511Z,5.70
2017-04-19T09:49:20.740Z,5.70
2017-04-19T09:50:19.984Z,5.60
2017-04-19T09:51:19.191Z,5.60
2017-04-19T09:52:18.419Z,5.50
2017-04-19T09:53:17.697Z,5.50
2017-04-19T09:54:16.920Z,5.50
2017-04-19T09:55:16.148Z,5.50
2017-04-19T09:56:15.374Z,5.40
2017-04-19T09:57:14.601Z,5.50
2017-04-19T09:58:13.842Z,5.60
2017-04-19T09:59:13.101Z,5.70
2017-04-19T10:00:12.333Z,5.70
2017-04-19T10:01:11.612Z,5.70
2017-04-19T10:02:10.837Z,5.80
2017-04-19T10:03:10.075Z,5.90
2017-04-19T10:04:09.472Z,6.00
2017-04-19T10:05:09.029Z,6.20
2017-04-19T10:06:08.257Z,6.20
2017-04-19T10:07:07.491Z,6.20
2017-04-19T10:08:06.740Z,6.30
2017-04-19T10:09:06.029Z,6.30
2017-04-19T10:10:05.248Z,6.50
2017-04-19T10:11:04.476Z,6.60
2017-04-19T10:12:03.732Z,6.80
2017-04-19T10:13:03.045Z,7.00
2017-04-19T10:14:02.324Z,7.00
2017-04-19T10:15:00.885Z,7.00
2017-04-19T10:16:00.117Z,6.50
2017-04-19T10:16:59.364Z,6.40
2017-04-19T10:17:58.585Z,6.20
2017-04-19T10:18:57.818Z,6.00
2017-04-19T10:19:57.042Z,5.80
2017-04-19T10:20:56.284Z,5.60
2017-04-19T10:21:55.492Z,5.50
2017-04-19T10:22:54.758Z,5.50
2017-04-19T10:23:53.996Z,5.60
2017-04-19T10:24:53.284Z,5.50
2017-04-19T10:25:52.502Z,5.50
2017-04-19T10:26:52.459Z,5.60
2017-04-19T10:27:51.692Z,5.80
2017-04-19T10:28:51.017Z,5.70
2017-04-19T10:29:50.233Z,5.80
2017-04-19T10:30:49.468Z,5.90
2017-04-19T10:31:48.684Z,5.90
2017-04-19T10:32:47.896Z,5.80
2017-04-19T10:33:47.169Z,5.70
2017-04-19T10:34:46.387Z,5.70
2017-04-19T10:35:45.625Z,5.70
2017-04-19T10:36:44.856Z,5.80
2017-04-19T10:37:44.072Z,5.80
2017-04-19T10:38:43.297Z,5.70
2017-04-19T10:39:42.547Z,5.70
2017-04-19T10:40:41.769Z,5.60
2017-04-19T10:41:40.984Z,5.50
2017-04-19T10:42:40.943Z,5.40
2017-04-19T10:43:40.260Z,5.40
2017-04-19T10:44:39.533Z,5.40
2017-04-19T10:45:38.773Z,5.40
2017-04-19T10:46:38.028Z,5.50
2017-04-19T10:47:37.260Z,5.60
2017-04-19T10:48:36.476Z,5.70
2017-04-19T10:49:35.740Z,5.80
2017-04-19T10:50:34.956Z,5.80
2017-04-19T10:51:34.173Z,5.90
2017-04-19T10:52:33.400Z,6.00
2017-04-19T10:53:32.829Z,5.90
2017-04-19T10:54:32.144Z,6.00
2017-04-19T10:55:30.693Z,6.00
2017-04-19T10:56:29.980Z,6.10
2017-04-19T10:57:29.194Z,6.10
2017-04-19T10:58:28.400Z,6.10
2017-04-19T10:59:27.656Z,6.10
2017-04-19T11:00:26.892Z,6.00
2017-04-19T11:01:26.112Z,6.00
2017-04-19T11:02:25.355Z,6.00
2017-04-19T11:03:24.588Z,5.90
2017-04-19T11:04:23.861Z,5.90
2017-04-19T11:05:23.119Z,5.90
2017-04-19T11:06:22.363Z,5.70
2017-04-19T11:07:21.596Z,5.70
2017-04-19T11:08:20.863Z,5.80
2017-04-19T11:09:20.513Z,5.50
2017-04-19T11:10:19.732Z,5.10
2017-04-19T11:11:18.988Z,5.20
2017-04-19T11:12:17.449Z,5.10
2017-04-19T11:13:16.676Z,5.40
2017-04-19T11:14:15.892Z,5.50
2017-04-19T11:15:15.892Z,5.60
2017-04-19T11:16:15.102Z,5.90
2017-04-19T11:17:14.315Z,6.00
2017-04-19T11:18:13.586Z,6.00
2017-04-19T11:19:12.820Z,6.20
2017-04-19T11:20:12.184Z,6.40
2017-04-19T11:21:11.429Z,6.50
2017-04-19T11:22:10.651Z,6.80
2017-04-19T11:23:09.927Z,7.00
2017-04-19T11:24:09.152Z,7.30
2017-04-19T11:25:08.458Z,7.50
2017-04-19T11:26:07.716Z,7.50
2017-04-19T11:27:06.979Z,7.40
2017-04-19T11:28:06.188Z,7.30
2017-04-19T11:29:04.666Z,7.30
2017-04-19T11:30:03.992Z,7.10
2017-04-19T11:31:03.276Z,7.00
2017-04-19T11:32:02.495Z,6.90
2017-04-19T11:33:01.720Z,6.80
2017-04-19T11:34:00.944Z,6.70
2017-04-19T11:35:00.472Z,6.60
2017-04-19T11:35:59.696Z,6.50
2017-04-19T11:36:58.924Z,6.40
2017-04-19T11:37:58.149Z,6.20
2017-04-19T11:38:57.384Z,6.10
2017-04-19T11:39:56.595Z,5.90
2017-04-19T11:40:55.848Z,5.80
2017-04-19T11:41:55.150Z,5.60
2017-04-19T11:42:54.408Z,5.50
2017-04-19T11:43:53.724Z,5.50
2017-04-19T11:44:52.964Z,5.50
2017-04-19T11:45:52.297Z,5.40
2017-04-19T11:46:51.535Z,5.40
2017-04-19T11:47:50.768Z,5.40
2017-04-19T11:48:49.228Z,5.40
2017-04-19T11:49:48.459Z,5.70
2017-04-19T11:50:47.723Z,5.70
2017-04-19T11:51:46.935Z,5.80
2017-04-19T11:52:46.180Z,5.80
2017-04-19T11:53:45.439Z,6.00
2017-04-19T11:54:43.898Z,5.90
2017-04-19T11:55:43.144Z,6.20
2017-04-19T11:56:42.364Z,6.50
2017-04-19T11:57:41.585Z,6.60
2017-04-19T11:58:40.856Z,6.80
2017-04-19T11:59:40.079Z,7.10
2017-04-19T12:00:39.363Z,7.10
2017-04-19T12:01:38.608Z,7.10
2017-04-19T12:02:37.808Z,7.00
2017-04-19T12:03:37.052Z,7.00
2017-04-19T12:04:36.272Z,7.10
2017-04-19T12:05:35.617Z,7.30
2017-04-19T12:06:34.860Z,7.40
2017-04-19T12:07:34.098Z,7.50
2017-04-19T12:08:33.332Z,7.60
2017-04-19T12:09:32.563Z,7.70
2017-04-19T12:10:32.300Z,7.90
2017-04-19T12:11:30.769Z,7.80
2017-04-19T12:12:30.004Z,8.20
2017-04-19T12:13:29.233Z,8.10
2017-04-19T12:14:28.456Z,8.10
2017-04-19T12:15:26.931Z,8.10
2017-04-19T12:16:26.183Z,8.10
2017-04-19T12:17:25.401Z,7.80
2017-04-19T12:18:24.612Z,7.60
2017-04-19T12:19:23.825Z,7.50
2017-04-19T12:20:23.044Z,7.40
2017-04-19T12:21:22.345Z,7.40
2017-04-19T12:22:21.624Z,7.30
2017-04-19T12:23:20.856Z,7.30
2017-04-19T12:24:20.098Z,7.30
2017-04-19T12:25:19.308Z,7.10
2017-04-19T12:26:18.600Z,7.00
2017-04-19T12:27:17.832Z,7.10
2017-04-19T12:28:17.040Z,7.10
2017-04-19T12:29:16.265Z,7.10
2017-04-19T12:30:16.228Z,7.00
2017-04-19T12:31:15.484Z,7.20
2017-04-19T12:32:14.715Z,7.60
2017-04-19T12:33:13.960Z,8.00
2017-04-19T12:34:13.243Z,8.40
2017-04-19T12:35:12.470Z,8.80
2017-04-19T12:36:11.716Z,9.30
2017-04-19T12:37:10.948Z,9.40
2017-04-19T12:38:10.909Z,9.40
2017-04-19T12:39:10.875Z,9.40
2017-04-19T12:40:09.429Z,9.40
2017-04-19T12:41:08.688Z,9.10
2017-04-19T12:42:07.942Z,8.80
2017-04-19T12:43:07.170Z,8.80
2017-04-19T12:44:07.144Z,8.80
2017-04-19T12:45:06.364Z,8.90
2017-04-19T12:46:05.881Z,8.80
2017-04-19T12:47:05.112Z,8.60
2017-04-19T12:48:04.335Z,8.60
2017-04-19T12:49:03.612Z,8.50
2017-04-19T12:50:02.832Z,8.40
2017-04-19T12:51:02.101Z,8.20
2017-04-19T12:52:00.597Z,8.20
2017-04-19T12:52:59.816Z,7.80
2017-04-19T12:53:59.028Z,7.20
2017-04-19T12:54:58.296Z,6.80
2017-04-19T12:55:57.516Z,6.50
2017-04-19T12:56:56.772Z,6.10
2017-04-19T12:57:55.988Z,5.80
2017-04-19T12:58:55.336Z,5.70
2017-04-19T12:59:54.568Z,5.30
2017-04-19T13:00:53.788Z,5.00
2017-04-19T13:01:53.032Z,4.80
2017-04-19T13:02:52.311Z,4.50
2017-04-19T13:03:51.566Z,4.50
2017-04-19T13:04:50.788Z,4.30
2017-04-19T13:05:50.020Z,4.50
2017-04-19T13:06:49.320Z,4.50
2017-04-19T13:07:48.559Z,4.60
2017-04-19T13:08:47.780Z,4.70